Time,TemperatureF,DewpointF,PressureIn,WindDirection,WindDirectionDegrees,WindSpeedMPH,WindSpeedGustMPH,Humidity,HourlyPrecipIn,Conditions,Clouds,dailyrainin,SoftwareType,DateUTC
2013-02-11 00:02:00,48.0,46.0,29.62,South,186,12.0,23.0,92,0.00,,,0.06,,2013-02-11 05:02:00,
2013-02-11 00:12:00,49.0,47.0,29.61,South,171,13.0,21.0,92,0.00,,,0.06,,2013-02-11 05:12:00,
2013-02-11 00:22:00,49.0,47.0,29.61,South,171,13.0,21.0,92,0.00,,,0.06,,2013-02-11 05:22:00,
2013-02-11 00:32:00,48.0,46.0,29.61,South,183,11.0,18.0,92,0.00,,,0.06,,2013-02-11 05:32:00,
2013-02-11 00:42:00,48.0,46.0,29.61,South,183,11.0,18.0,92,0.00,,,0.06,,2013-02-11 05:42:00,
2013-02-11 00:53:00,49.0,46.0,29.61,South,180,14.0,21.0,91,0.00,,,0.06,,2013-02-11 05:53:00,
2013-02-11 01:02:00,49.0,46.0,29.60,SW,216,15.0,28.0,91,0.00,,,0.06,,2013-02-11 06:02:00,
2013-02-11 01:12:00,49.0,46.0,29.60,SW,216,15.0,28.0,91,0.00,,,0.06,,2013-02-11 06:12:00,
2013-02-11 01:22:00,49.0,46.0,29.60,South,187,14.0,21.0,91,0.00,,,0.06,,2013-02-11 06:22:00,
2013-02-11 01:32:00,48.0,45.0,29.59,South,189,11.0,22.0,91,0.00,,,0.06,,2013-02-11 06:32:00,
2013-02-11 01:42:00,48.0,45.0,29.60,SSW,201,12.0,21.0,91,0.00,,,0.06,,2013-02-11 06:42:00,
2013-02-11 01:52:00,48.0,45.0,29.60,SSW,201,12.0,21.0,91,0.00,,,0.06,,2013-02-11 06:52:00,
2013-02-11 02:01:00,49.0,46.0,29.59,SSW,198,11.0,22.0,90,0.00,,,0.06,,2013-02-11 07:01:00,
2013-02-11 02:11:00,49.0,46.0,29.59,SSW,198,11.0,21.0,90,0.00,,,0.06,,2013-02-11 07:11:00,
2013-02-11 02:22:00,49.0,46.0,29.59,SSW,198,11.0,21.0,90,0.00,,,0.06,,2013-02-11 07:22:00,
2013-02-11 02:32:00,49.0,46.0,29.59,SSW,192,12.0,22.0,90,0.00,,,0.06,,2013-02-11 07:32:00,
2013-02-11 02:42:00,49.0,46.0,29.59,SSW,202,13.0,19.0,90,0.00,,,0.06,,2013-02-11 07:42:00,
2013-02-11 02:52:00,49.0,46.0,29.59,SSW,202,13.0,19.0,90,0.00,,,0.06,,2013-02-11 07:52:00,
2013-02-11 03:01:00,48.0,45.0,29.59,South,189,12.0,22.0,90,0.00,,,0.06,,2013-02-11 08:01:00,
2013-02-11 03:11:00,48.0,45.0,29.58,SSW,197,13.0,19.0,91,0.00,,,0.06,,2013-02-11 08:11:00,
2013-02-11 03:21:00,48.0,45.0,29.58,SSW,197,13.0,19.0,91,0.00,,,0.06,,2013-02-11 08:21:00,
2013-02-11 03:32:00,48.0,46.0,29.59,SW,222,9.0,15.0,92,0.01,,,0.07,,2013-02-11 08:32:00,
2013-02-11 03:42:00,48.0,45.0,29.59,SW,236,12.0,20.0,90,0.03,,,0.09,,2013-02-11 08:42:00,
2013-02-11 03:52:00,48.0,45.0,29.59,SW,236,12.0,20.0,90,0.03,,,0.09,,2013-02-11 08:52:00,
2013-02-11 04:01:00,46.0,41.0,29.59,WSW,246,11.0,19.0,81,0.03,,,0.09,,2013-02-11 09:01:00,
2013-02-11 04:12:00,46.0,41.0,29.59,WSW,246,11.0,19.0,81,0.03,,,0.09,,2013-02-11 09:12:00,
2013-02-11 04:21:00,46.0,39.0,29.59,WSW,246,11.0,20.0,75,0.03,,,0.09,,2013-02-11 09:21:00,
2013-02-11 04:32:00,45.0,37.0,29.59,WSW,250,12.0,19.0,74,0.02,,,0.09,,2013-02-11 09:32:00,
2013-02-11 04:42:00,45.0,37.0,29.59,WSW,250,12.0,19.0,74,0.02,,,0.09,,2013-02-11 09:42:00,
2013-02-11 04:52:00,44.0,36.0,29.60,WSW,244,17.0,36.0,72,0.00,,,0.09,,2013-02-11 09:52:00,
2013-02-11 05:01:00,43.0,35.0,29.61,WSW,238,18.0,31.0,74,0.00,,,0.09,,2013-02-11 10:01:00,
2013-02-11 05:11:00,43.0,35.0,29.61,WSW,238,18.0,31.0,74,0.00,,,0.09,,2013-02-11 10:11:00,
2013-02-11 05:21:00,43.0,36.0,29.62,SW,234,12.0,23.0,76,0.00,,,0.09,,2013-02-11 10:21:00,
2013-02-11 05:32:00,42.0,33.0,29.63,SW,234,17.0,36.0,69,0.01,,,0.10,,2013-02-11 10:32:00,
2013-02-11 05:42:00,42.0,33.0,29.63,SW,234,17.0,36.0,69,0.01,,,0.10,,2013-02-11 10:42:00,
2013-02-11 05:52:00,41.0,32.0,29.63,WSW,237,16.0,26.0,70,0.01,,,0.10,,2013-02-11 10:52:00,
2013-02-11 06:02:00,41.0,33.0,29.63,WSW,246,14.0,27.0,72,0.01,,,0.10,,2013-02-11 11:02:00,
2013-02-11 06:11:00,41.0,33.0,29.63,WSW,246,14.0,27.0,72,0.01,,,0.10,,2013-02-11 11:11:00,
2013-02-11 06:22:00,41.0,33.0,29.64,SW,230,18.0,31.0,73,0.01,,,0.10,,2013-02-11 11:22:00,
2013-02-11 06:32:00,40.0,32.0,29.64,SSW,206,15.0,30.0,73,0.00,,,0.10,,2013-02-11 11:32:00,
2013-02-11 06:42:00,40.0,32.0,29.65,SW,233,18.0,28.0,74,0.00,,,0.10,,2013-02-11 11:42:00,
2013-02-11 06:52:00,40.0,32.0,29.65,SW,233,18.0,28.0,74,0.00,,,0.10,,2013-02-11 11:52:00,
2013-02-11 07:03:00,40.0,33.0,29.65,SSW,213,13.0,29.0,75,0.00,,,0.10,,2013-02-11 12:03:00,
2013-02-11 07:12:00,40.0,33.0,29.65,SSW,213,13.0,29.0,75,0.00,,,0.10,,2013-02-11 12:12:00,
2013-02-11 07:22:00,39.0,32.0,29.66,WSW,257,16.0,28.0,75,0.00,,,0.10,,2013-02-11 12:22:00,
2013-02-11 07:32:00,38.0,31.0,29.66,WSW,246,18.0,29.0,75,0.00,,,0.10,,2013-02-11 12:32:00,
2013-02-11 07:42:00,37.0,30.0,29.67,SW,226,12.0,23.0,75,0.00,,,0.10,,2013-02-11 12:42:00,
2013-02-11 07:52:00,37.0,30.0,29.67,SW,226,12.0,23.0,75,0.00,,,0.10,,2013-02-11 12:52:00,
2013-02-11 08:02:00,37.0,29.0,29.68,SW,220,13.0,29.0,72,0.00,,,0.10,,2013-02-11 13:02:00,
2013-02-11 08:12:00,36.0,28.0,29.69,SSW,212,14.0,30.0,73,0.00,,,0.10,,2013-02-11 13:12:00,
2013-02-11 08:22:00,36.0,28.0,29.69,SSW,212,14.0,30.0,73,0.00,,,0.10,,2013-02-11 13:22:00,
2013-02-11 08:33:00,36.0,29.0,29.70,WSW,244,16.0,27.0,74,0.00,,,0.10,,2013-02-11 13:33:00,
2013-02-11 08:42:00,36.0,29.0,29.70,WSW,244,16.0,27.0,74,0.00,,,0.10,,2013-02-11 13:42:00,
2013-02-11 08:52:00,36.0,29.0,29.70,SW,229,12.0,25.0,74,0.00,,,0.10,,2013-02-11 13:52:00,
2013-02-11 09:02:00,35.0,28.0,29.71,WSW,240,18.0,26.0,74,0.00,,,0.10,,2013-02-11 14:02:00,
2013-02-11 09:12:00,35.0,28.0,29.71,WSW,240,18.0,26.0,74,0.00,,,0.10,,2013-02-11 14:12:00,
2013-02-11 09:22:00,35.0,27.0,29.71,WSW,249,15.0,25.0,73,0.00,,,0.10,,2013-02-11 14:22:00,
2013-02-11 09:33:00,35.0,26.0,29.72,WSW,256,21.0,39.0,69,0.00,,,0.10,,2013-02-11 14:33:00,
2013-02-11 09:42:00,35.0,26.0,29.73,WSW,251,20.0,45.0,69,0.00,,,0.10,,2013-02-11 14:42:00,
2013-02-11 09:53:00,35.0,26.0,29.73,WSW,251,20.0,45.0,69,0.00,,,0.10,,2013-02-11 14:53:00,
2013-02-11 10:02:00,35.0,26.0,29.73,WSW,241,15.0,28.0,70,0.00,,,0.10,,2013-02-11 15:02:00,
2013-02-11 10:11:00,35.0,26.0,29.73,WSW,241,15.0,28.0,70,0.00,,,0.10,,2013-02-11 15:11:00,
2013-02-11 10:22:00,34.0,26.0,29.74,WSW,248,13.0,27.0,71,0.00,,,0.10,,2013-02-11 15:22:00,
2013-02-11 10:32:00,34.0,26.0,29.74,SW,227,15.0,27.0,72,0.00,,,0.10,,2013-02-11 15:32:00,
2013-02-11 10:42:00,34.0,26.0,29.75,WSW,243,12.0,28.0,73,0.00,,,0.10,,2013-02-11 15:42:00,
2013-02-11 10:52:00,34.0,26.0,29.75,WSW,243,12.0,28.0,73,0.00,,,0.10,,2013-02-11 15:52:00,
2013-02-11 11:02:00,34.0,27.0,29.74,SW,229,14.0,24.0,75,0.00,,,0.10,,2013-02-11 16:02:00,
2013-02-11 11:12:00,34.0,27.0,29.74,SW,229,14.0,24.0,75,0.00,,,0.10,,2013-02-11 16:12:00,
2013-02-11 11:22:00,34.0,26.0,29.75,SW,226,15.0,24.0,73,0.00,,,0.10,,2013-02-11 16:22:00,
2013-02-11 11:32:00,34.0,26.0,29.75,SW,236,18.0,31.0,72,0.00,,,0.10,,2013-02-11 16:32:00,
2013-02-11 11:42:00,34.0,26.0,29.75,SW,236,16.0,31.0,73,0.00,,,0.10,,2013-02-11 16:42:00,
2013-02-11 11:53:00,34.0,26.0,29.75,SW,236,16.0,31.0,73,0.00,,,0.10,,2013-02-11 16:53:00,
2013-02-11 12:02:00,34.0,27.0,29.76,WSW,242,11.0,31.0,74,0.00,,,0.10,,2013-02-11 17:02:00,
2013-02-11 12:11:00,34.0,27.0,29.76,WSW,242,11.0,31.0,74,0.00,,,0.10,,2013-02-11 17:11:00,
2013-02-11 12:22:00,34.0,27.0,29.76,WSW,258,15.0,25.0,74,0.00,,,0.10,,2013-02-11 17:22:00,
2013-02-11 12:32:00,34.0,25.0,29.76,WSW,246,16.0,28.0,70,0.00,,,0.10,,2013-02-11 17:32:00,
2013-02-11 12:42:00,34.0,25.0,29.76,WSW,246,16.0,28.0,70,0.00,,,0.10,,2013-02-11 17:42:00,
2013-02-11 12:53:00,34.0,26.0,29.76,WSW,243,15.0,33.0,71,0.00,,,0.10,,2013-02-11 17:53:00,
2013-02-11 13:02:00,34.0,26.0,29.77,WSW,257,18.0,33.0,73,0.00,,,0.10,,2013-02-11 18:02:00,
2013-02-11 13:11:00,34.0,26.0,29.77,WSW,257,18.0,33.0,73,0.00,,,0.10,,2013-02-11 18:11:00,
2013-02-11 13:22:00,34.0,27.0,29.77,West,261,18.0,31.0,75,0.00,,,0.10,,2013-02-11 18:22:00,
2013-02-11 13:32:00,34.0,27.0,29.78,SW,215,13.0,26.0,74,0.00,,,0.10,,2013-02-11 18:32:00,
2013-02-11 13:42:00,34.0,27.0,29.78,SW,215,13.0,26.0,74,0.00,,,0.10,,2013-02-11 18:42:00,
2013-02-11 13:54:00,34.0,25.0,29.77,West,259,23.0,33.0,69,0.00,,,0.10,,2013-02-11 18:54:00,
2013-02-11 14:02:00,34.0,25.0,29.78,WSW,250,17.0,35.0,70,0.00,,,0.10,,2013-02-11 19:02:00,
2013-02-11 14:11:00,35.0,26.0,29.78,SW,233,16.0,28.0,70,0.00,,,0.10,,2013-02-11 19:11:00,
2013-02-11 14:22:00,35.0,26.0,29.78,SW,233,16.0,28.0,70,0.00,,,0.10,,2013-02-11 19:22:00,
2013-02-11 14:32:00,34.0,25.0,29.79,WSW,249,17.0,37.0,70,0.00,,,0.10,,2013-02-11 19:32:00,
2013-02-11 14:42:00,34.0,25.0,29.79,WSW,249,17.0,37.0,70,0.00,,,0.10,,2013-02-11 19:42:00,
2013-02-11 14:52:00,34.0,25.0,29.79,West,263,20.0,32.0,70,0.00,,,0.10,,2013-02-11 19:52:00,
2013-02-11 15:01:00,34.0,26.0,29.79,SW,215,16.0,28.0,71,0.00,,,0.10,,2013-02-11 20:01:00,
2013-02-11 15:11:00,34.0,26.0,29.80,WSW,242,16.0,31.0,71,0.00,,,0.10,,2013-02-11 20:11:00,
2013-02-11 15:22:00,34.0,26.0,29.80,WSW,242,16.0,31.0,71,0.00,,,0.10,,2013-02-11 20:22:00,
2013-02-11 15:32:00,34.0,26.0,29.80,West,259,15.0,37.0,71,0.00,,,0.10,,2013-02-11 20:32:00,
2013-02-11 15:42:00,34.0,26.0,29.81,WSW,248,21.0,38.0,72,0.00,,,0.10,,2013-02-11 20:42:00,
2013-02-11 15:52:00,34.0,26.0,29.81,WSW,248,21.0,38.0,72,0.00,,,0.10,,2013-02-11 20:52:00,
2013-02-11 16:02:00,34.0,26.0,29.82,West,259,16.0,36.0,72,0.00,,,0.10,,2013-02-11 21:02:00,
2013-02-11 16:12:00,34.0,26.0,29.83,WSW,248,16.0,32.0,72,0.00,,,0.08,,2013-02-11 21:12:00,
2013-02-11 16:22:00,34.0,26.0,29.83,WSW,248,16.0,32.0,72,0.00,,,0.08,,2013-02-11 21:22:00,
2013-02-11 16:32:00,34.0,26.0,29.83,WSW,249,18.0,29.0,73,0.00,,,0.08,,2013-02-11 21:32:00,
2013-02-11 16:42:00,34.0,26.0,29.83,WSW,249,18.0,29.0,73,0.00,,,0.08,,2013-02-11 21:42:00,
2013-02-11 16:52:00,34.0,26.0,29.84,WSW,237,16.0,32.0,73,0.00,,,0.08,,2013-02-11 21:52:00,
2013-02-11 17:02:00,33.0,26.0,29.85,West,269,16.0,32.0,74,0.00,,,0.08,,2013-02-11 22:02:00,
2013-02-11 17:12:00,33.0,25.0,29.85,WSW,257,14.0,28.0,73,0.00,,,0.05,,2013-02-11 22:12:00,
2013-02-11 17:22:00,33.0,25.0,29.85,WSW,257,14.0,28.0,73,0.00,,,0.05,,2013-02-11 22:22:00,
2013-02-11 17:32:00,33.0,25.0,29.86,West,266,17.0,26.0,72,0.00,,,0.05,,2013-02-11 22:32:00,
2013-02-11 17:42:00,33.0,25.0,29.86,West,266,17.0,26.0,72,0.00,,,0.05,,2013-02-11 22:42:00,
2013-02-11 17:52:00,33.0,25.0,29.86,WSW,256,18.0,27.0,72,0.00,,,0.05,,2013-02-11 22:52:00,
2013-02-11 18:02:00,33.0,25.0,29.87,SW,236,16.0,30.0,73,0.00,,,0.05,,2013-02-11 23:02:00,
2013-02-11 18:11:00,33.0,25.0,29.87,SW,236,16.0,30.0,73,0.00,,,0.05,,2013-02-11 23:11:00,
2013-02-11 18:22:00,33.0,25.0,29.87,WSW,250,18.0,29.0,73,0.00,,,0.05,,2013-02-11 23:22:00,
2013-02-11 18:32:00,33.0,25.0,29.88,WSW,246,16.0,30.0,73,0.00,,,0.05,,2013-02-11 23:32:00,
2013-02-11 18:42:00,33.0,25.0,29.88,WSW,246,16.0,30.0,73,0.00,,,0.05,,2013-02-11 23:42:00,
2013-02-11 18:52:00,33.0,25.0,29.89,WSW,247,14.0,21.0,73,0.00,,,0.05,,2013-02-11 23:52:00,
2013-02-11 19:02:00,33.0,26.0,29.89,West,269,11.0,23.0,76,0.00,,,0.05,,2013-02-12 00:02:00,
2013-02-11 19:12:00,33.0,26.0,29.89,West,269,11.0,23.0,76,0.00,,,0.05,,2013-02-12 00:12:00,
2013-02-11 19:22:00,33.0,26.0,29.89,WSW,255,14.0,26.0,76,0.00,,,0.05,,2013-02-12 00:22:00,
2013-02-11 19:32:00,33.0,26.0,29.90,WSW,249,11.0,24.0,76,0.00,,,0.05,,2013-02-12 00:32:00,
2013-02-11 19:42:00,33.0,26.0,29.90,WSW,249,11.0,24.0,76,0.00,,,0.05,,2013-02-12 00:42:00,
2013-02-11 19:52:00,33.0,26.0,29.91,West,277,14.0,27.0,76,0.00,,,0.05,,2013-02-12 00:52:00,
2013-02-11 20:02:00,33.0,26.0,29.91,WSW,250,15.0,26.0,74,0.00,,,0.05,,2013-02-12 01:02:00,
2013-02-11 20:11:00,33.0,26.0,29.91,WSW,250,15.0,26.0,74,0.00,,,0.05,,2013-02-12 01:11:00,
2013-02-11 20:22:00,32.0,24.0,29.91,SW,235,17.0,28.0,73,0.00,,,0.04,,2013-02-12 01:22:00,
2013-02-11 20:32:00,32.0,25.0,29.91,WSW,254,17.0,29.0,74,0.00,,,0.04,,2013-02-12 01:32:00,
2013-02-11 20:42:00,32.0,25.0,29.91,WSW,254,17.0,29.0,74,0.00,,,0.04,,2013-02-12 01:42:00,
2013-02-11 20:52:00,32.0,24.0,29.92,WSW,241,20.0,30.0,72,0.00,,,0.04,,2013-02-12 01:52:00,
2013-02-11 21:02:00,32.0,24.0,29.93,WSW,252,12.0,33.0,72,0.00,,,0.04,,2013-02-12 02:02:00,
2013-02-11 21:12:00,32.0,24.0,29.93,WNW,300,16.0,28.0,72,0.00,,,0.04,,2013-02-12 02:12:00,
2013-02-11 21:22:00,32.0,24.0,29.93,WNW,300,16.0,28.0,72,0.00,,,0.04,,2013-02-12 02:22:00,
2013-02-11 21:32:00,32.0,24.0,29.93,WSW,239,16.0,28.0,72,0.00,,,0.04,,2013-02-12 02:32:00,
2013-02-11 21:42:00,32.0,24.0,29.93,WSW,239,16.0,28.0,72,0.00,,,0.04,,2013-02-12 02:42:00,
2013-02-11 21:53:00,32.0,24.0,29.93,WSW,257,13.0,27.0,73,0.00,,,0.04,,2013-02-12 02:53:00,
2013-02-11 22:02:00,32.0,25.0,29.93,West,260,12.0,23.0,74,0.00,,,0.04,,2013-02-12 03:02:00,
2013-02-11 22:11:00,31.0,24.0,29.93,West,269,13.0,25.0,74,0.00,,,0.04,,2013-02-12 03:11:00,
2013-02-11 22:21:00,31.0,24.0,29.93,West,269,13.0,25.0,74,0.00,,,0.04,,2013-02-12 03:21:00,
2013-02-11 22:32:00,31.0,24.0,29.94,West,259,13.0,20.0,74,0.00,,,0.04,,2013-02-12 03:32:00,
2013-02-11 22:42:00,31.0,23.0,29.94,WSW,251,14.0,22.0,73,0.00,,,0.04,,2013-02-12 03:42:00,
2013-02-11 22:52:00,31.0,23.0,29.94,WSW,251,14.0,22.0,73,0.00,,,0.04,,2013-02-12 03:52:00,
2013-02-11 23:01:00,31.0,23.0,29.95,West,273,17.0,26.0,73,0.00,,,0.04,,2013-02-12 04:01:00,
2013-02-11 23:11:00,31.0,23.0,29.95,West,273,17.0,26.0,73,0.00,,,0.04,,2013-02-12 04:11:00,
2013-02-11 23:21:00,31.0,24.0,29.96,West,265,15.0,23.0,74,0.00,,,0.04,,2013-02-12 04:21:00,
2013-02-11 23:32:00,31.0,24.0,29.96,WSW,241,8.0,22.0,75,0.00,,,0.04,,2013-02-12 04:32:00,
2013-02-11 23:42:00,31.0,24.0,29.96,WSW,241,8.0,22.0,75,0.00,,,0.04,,2013-02-12 04:42:00,
2013-02-11 23:52:00,31.0,24.0,29.96,WSW,248,12.0,19.0,75,0.00,,,0.04,,2013-02-12 04:52:00,